createdAt,value
2022-11-17T00:02:34.116Z,9
2022-11-17T00:07:16.408Z,9
2022-11-17T00:11:57.827Z,9
2022-11-17T00:16:40.145Z,9
2022-11-17T00:21:22.584Z,9
2022-11-17T00:26:04.870Z,9
2022-11-17T00:30:47.283Z,9
2022-11-17T00:35:29.598Z,9
2022-11-17T00:40:11.933Z,9
2022-11-17T00:44:54.415Z,9
2022-11-17T00:49:36.670Z,9
2022-11-17T00:54:19.041Z,9
2022-11-17T00:59:01.369Z,9
2022-11-17T01:03:43.735Z,9
2022-11-17T01:08:26.102Z,9
2022-11-17T01:13:08.414Z,9
2022-11-17T01:17:49.835Z,9
2022-11-17T01:22:32.145Z,9
2022-11-17T01:27:14.557Z,9
2022-11-17T01:31:56.887Z,9
2022-11-17T01:36:39.195Z,9
2022-11-17T01:41:21.605Z,9
2022-11-17T01:46:03.917Z,9
2022-11-17T01:50:46.327Z,9
2022-11-17T01:55:28.646Z,9
2022-11-17T02:00:10.959Z,9
2022-11-17T02:04:53.368Z,9
2022-11-17T02:14:18.099Z,4
2022-11-17T02:18:59.416Z,4
2022-11-17T02:23:41.834Z,9
2022-11-17T02:28:24.146Z,4
2022-11-17T02:33:06.563Z,4
2022-11-17T02:37:48.929Z,4
2022-11-17T02:42:31.194Z,4
2022-11-17T02:47:13.612Z,4
2022-11-17T02:51:55.933Z,4
2022-11-17T02:56:38.317Z,4
2022-11-17T03:01:20.644Z,9
2022-11-17T03:06:02.964Z,9
2022-11-17T03:10:45.376Z,9
2022-11-17T03:15:27.697Z,4
2022-11-17T03:20:10.010Z,9
2022-11-17T03:24:51.444Z,9
2022-11-17T03:29:33.835Z,4
2022-11-17T03:34:16.181Z,9
2022-11-17T03:38:58.473Z,9
2022-11-17T03:43:40.874Z,4
2022-11-17T03:48:23.218Z,4
2022-11-17T03:53:05.606Z,4
2022-11-17T03:57:47.927Z,4
2022-11-17T04:02:30.236Z,4
2022-11-17T04:07:12.652Z,4
2022-11-17T04:11:54.981Z,4
2022-11-17T04:21:19.698Z,4
2022-11-17T04:26:01.170Z,4
2022-11-17T04:30:43.423Z,4
2022-11-17T04:35:25.845Z,4
2022-11-17T04:40:08.238Z,4
2022-11-17T04:44:50.525Z,4
2022-11-17T04:49:33.033Z,4
2022-11-17T04:54:15.203Z,4
2022-11-17T04:58:57.530Z,4
2022-11-17T05:03:39.931Z,4
2022-11-17T05:08:22.246Z,4
2022-11-17T05:13:04.696Z,4
2022-11-17T05:17:47.052Z,4
2022-11-17T05:22:29.351Z,4
2022-11-17T05:27:10.701Z,4
2022-11-17T05:31:53.145Z,4
2022-11-17T05:36:35.428Z,9
2022-11-17T05:41:17.749Z,4
2022-11-17T05:46:00.161Z,12
2022-11-17T05:50:42.497Z,12
2022-11-17T05:55:24.902Z,15
2022-11-17T06:00:07.232Z,15
2022-11-17T06:04:49.521Z,13
2022-11-17T06:09:31.937Z,30
2022-11-17T06:14:14.253Z,32
2022-11-17T06:18:56.677Z,63
2022-11-17T06:23:38.982Z,105
2022-11-17T06:28:20.472Z,145
2022-11-17T06:33:02.713Z,195
2022-11-17T06:37:45.128Z,331
2022-11-17T06:42:27.508Z,522
2022-11-17T06:47:09.753Z,535
2022-11-17T06:51:52.168Z,516
2022-11-17T06:56:34.493Z,563
2022-11-17T07:01:17.017Z,617
2022-11-17T07:05:59.216Z,654
2022-11-17T07:10:41.529Z,683
2022-11-17T07:20:06.306Z,368
2022-11-17T07:24:48.617Z,428
2022-11-17T07:29:31.071Z,1016
2022-11-17T07:34:13.320Z,1786
2022-11-17T07:38:54.806Z,1497
2022-11-17T07:43:37.168Z,1059
2022-11-17T07:53:01.765Z,1400
2022-11-17T08:02:26.507Z,1106
2022-11-17T08:07:08.076Z,1443
2022-11-17T08:11:50.281Z,1202
2022-11-17T08:16:32.639Z,2992
2022-11-17T08:21:14.952Z,2695
2022-11-17T08:30:38.680Z,6167
2022-11-17T08:35:21.135Z,10293
2022-11-17T08:40:03.451Z,7623
2022-11-17T08:44:45.824Z,9746
2022-11-17T08:49:28.143Z,8179
2022-11-17T08:54:10.458Z,10871
2022-11-17T08:58:52.931Z,12816
2022-11-17T09:03:35.207Z,13446
2022-11-17T09:08:17.674Z,9049
2022-11-17T09:12:59.922Z,11132
2022-11-17T09:17:42.230Z,13759
2022-11-17T09:22:24.647Z,17881
2022-11-17T09:27:06.065Z,31980
2022-11-17T09:31:48.366Z,35200
2022-11-17T09:36:30.687Z,12213
2022-11-17T09:41:13.105Z,10313
2022-11-17T09:45:55.422Z,8938
2022-11-17T09:50:37.732Z,7634
2022-11-17T10:00:01.556Z,4823
2022-11-17T10:04:43.879Z,4353
2022-11-17T10:09:26.286Z,10226
2022-11-17T10:14:07.708Z,11608
2022-11-17T10:18:50.164Z,10037
2022-11-17T10:23:31.435Z,11813
2022-11-17T10:28:13.750Z,9048
2022-11-17T10:32:56.304Z,8987
2022-11-17T10:37:38.478Z,15602
2022-11-17T10:42:20.790Z,10216
2022-11-17T10:47:03.362Z,14072
2022-11-17T10:56:27.869Z,13978
2022-11-17T11:01:10.292Z,10127
2022-11-17T11:05:52.615Z,10855
2022-11-17T11:10:34.918Z,7102
2022-11-17T11:15:17.332Z,5201
2022-11-17T11:24:41.967Z,4937
2022-11-17T11:29:23.378Z,6829
2022-11-17T11:34:05.799Z,6994
2022-11-17T11:38:47.208Z,7034
2022-11-17T11:43:29.524Z,6666
2022-11-17T11:48:11.844Z,7923
2022-11-17T11:52:54.257Z,8240
2022-11-17T11:57:36.572Z,9520
2022-11-17T12:02:18.986Z,12220
2022-11-17T12:07:01.305Z,11365
2022-11-17T12:11:43.613Z,14457
2022-11-17T12:16:26.029Z,17624
2022-11-17T12:21:07.446Z,18175
2022-11-17T12:25:49.759Z,21687
2022-11-17T12:30:31.172Z,17412
2022-11-17T12:35:13.502Z,10552
2022-11-17T12:39:55.903Z,14092
2022-11-17T12:44:38.216Z,18905
2022-11-17T12:49:20.533Z,19440
2022-11-17T13:03:27.671Z,14203
2022-11-17T13:08:09.993Z,12439
2022-11-17T13:12:52.428Z,22107
2022-11-17T13:17:34.864Z,12662
2022-11-17T13:22:16.328Z,23433
2022-11-17T13:26:58.673Z,14091
2022-11-17T13:31:41.093Z,22863
2022-11-17T13:41:04.730Z,21788
2022-11-17T13:45:47.053Z,7490
2022-11-17T13:50:29.407Z,14874
2022-11-17T13:55:11.738Z,7968
2022-11-17T13:59:53.955Z,5408
2022-11-17T14:09:18.797Z,11106
2022-11-17T14:14:01.005Z,12170
2022-11-17T14:18:43.414Z,9633
2022-11-17T14:28:07.261Z,1816
2022-11-17T14:32:49.652Z,912
2022-11-17T14:37:31.125Z,2790
2022-11-17T14:42:13.387Z,4592
2022-11-17T14:46:55.617Z,3239
2022-11-17T14:51:38.147Z,2870
2022-11-17T14:56:19.623Z,3452
2022-11-17T15:01:01.929Z,2347
2022-11-17T15:05:44.218Z,2015
2022-11-17T15:10:26.654Z,1531
2022-11-17T15:15:09.022Z,1017
2022-11-17T15:19:51.227Z,799
2022-11-17T15:24:33.585Z,748
2022-11-17T15:29:15.839Z,549
2022-11-17T15:33:57.273Z,431
2022-11-17T15:38:38.657Z,254
2022-11-17T15:43:21.118Z,125
2022-11-17T15:48:03.484Z,86
2022-11-17T15:52:45.716Z,33
2022-11-17T15:57:28.172Z,30
2022-11-17T16:02:10.431Z,22
2022-11-17T16:06:52.891Z,18
2022-11-17T16:11:35.286Z,15
2022-11-17T16:16:17.481Z,15
2022-11-17T16:20:59.956Z,15
2022-11-17T16:25:42.348Z,15
2022-11-17T16:30:23.620Z,15
2022-11-17T16:35:05.969Z,15
2022-11-17T16:39:48.422Z,15
2022-11-17T16:44:30.790Z,12
2022-11-17T16:49:12.238Z,12
2022-11-17T16:53:54.503Z,12
2022-11-17T16:58:36.806Z,12
2022-11-17T17:03:19.127Z,12
2022-11-17T17:08:01.543Z,12
2022-11-17T17:12:43.881Z,12
2022-11-17T17:17:26.220Z,12
2022-11-17T17:22:08.586Z,12
2022-11-17T17:26:50.918Z,12
2022-11-17T17:31:33.317Z,12
2022-11-17T17:36:15.636Z,12
2022-11-17T17:40:57.941Z,9
2022-11-17T17:45:40.362Z,9
2022-11-17T17:50:22.694Z,9
2022-11-17T17:55:04.088Z,9
2022-11-17T17:59:46.404Z,9
2022-11-17T18:04:28.826Z,9
2022-11-17T18:09:11.127Z,9
2022-11-17T18:13:53.464Z,9
2022-11-17T18:18:35.864Z,9
2022-11-17T18:28:00.593Z,9
2022-11-17T18:32:42.907Z,9
2022-11-17T18:37:25.219Z,9
2022-11-17T18:42:07.630Z,9
2022-11-17T18:46:50.065Z,9
2022-11-17T18:51:32.270Z,4
2022-11-17T18:56:14.807Z,4
2022-11-17T19:00:56.096Z,9
2022-11-17T19:05:38.400Z,4
2022-11-17T19:10:20.826Z,4
2022-11-17T19:15:03.245Z,4
2022-11-17T19:19:45.451Z,4
2022-11-17T19:24:28.016Z,4
2022-11-17T19:29:10.185Z,9
2022-11-17T19:33:52.558Z,4
2022-11-17T19:38:34.915Z,4
2022-11-17T19:43:17.231Z,4
2022-11-17T19:52:41.978Z,4
2022-11-17T19:57:24.274Z,4
2022-11-17T20:02:06.720Z,4
2022-11-17T20:06:48.191Z,4
2022-11-17T20:11:30.436Z,4
2022-11-17T20:16:12.774Z,4
2022-11-17T20:20:55.251Z,4
2022-11-17T20:25:37.465Z,4
2022-11-17T20:30:19.775Z,4
2022-11-17T20:35:02.233Z,4
2022-11-17T20:39:44.506Z,4
2022-11-17T20:44:26.923Z,4
2022-11-17T20:49:09.235Z,4
2022-11-17T20:53:51.559Z,4
2022-11-17T20:58:33.970Z,4
2022-11-17T21:03:16.280Z,4
2022-11-17T21:07:57.817Z,4
2022-11-17T21:17:22.430Z,4
2022-11-17T21:22:04.809Z,4
2022-11-17T21:26:47.207Z,4
2022-11-17T21:31:29.628Z,4
2022-11-17T21:36:11.791Z,4
2022-11-17T21:40:54.200Z,4
2022-11-17T21:45:36.520Z,4
2022-11-17T21:50:18.926Z,4
2022-11-17T21:59:43.613Z,4
2022-11-17T22:04:25.881Z,4
2022-11-17T22:09:07.432Z,4
2022-11-17T22:13:49.709Z,4
2022-11-17T22:18:32.064Z,4
2022-11-17T22:23:14.362Z,4
2022-11-17T22:27:56.757Z,4
2022-11-17T22:32:39.072Z,4
2022-11-17T22:37:21.488Z,4
2022-11-17T22:42:03.801Z,4
2022-11-17T22:51:28.535Z,4
2022-11-17T22:56:10.842Z,4
2022-11-17T23:00:53.258Z,4
2022-11-17T23:05:35.578Z,4
2022-11-17T23:10:17.908Z,4
2022-11-17T23:15:00.305Z,4
2022-11-17T23:19:42.747Z,4
2022-11-17T23:24:24.928Z,4
2022-11-17T23:29:07.377Z,4
2022-11-17T23:38:31.991Z,4
2022-11-17T23:43:14.401Z,4
2022-11-17T23:47:56.707Z,4
2022-11-17T23:52:39.129Z,4
2022-11-17T23:57:21.444Z,4
